Kezdőlap
METAR-TAF:

METAR-TAF

Repülőterek :

Krivij Rih, Ukrajna

földrajzi szélesség: 48-03N, földrajzi hosszúság: 033-13-12E, magasság: 124 m

Jelenlegi meteorológiai megfigyelések

A jelentés 35 perccel ezelõtt készült, 01:30 UTC
Észak-északnyugati szél 4 kt
Hőmérséklet 9°C
Páratartalom 53%
Légköri nyomás 1027 hPa
Látótávolság 10 km, vagy több
felhőtlen 1500 m magasságban, és nincs gomolyfelhõ

METAR: UKDR 250130Z 34002MPS CAVOK 09/00 Q1027 R18/09//70 NOSIG

Idő: 05:05 (02:05 UTC)

Előrejelzés

A jelentés 2 órával és 59 perccel ezelõtt készült, 23:06 UTC
Az előrejelzés 25-én 00 óra UTC és 25-én 24 óra UTC között érvényes
Északnyugati szél 4 kt
Látótávolság 10 km, vagy több
felhőtlen 1500 m magasságban, és nincs gomolyfelhõ

TAF: UKDR 242306Z 2500/2524 32002MPS CAVOK

Meteorológiai megfigyelések és előrejelzések több, mint 4000 repülőtéren (METAR és TAF jelentéseket).

A térképen piros és sárga pontok jelzik az elérhető meteorológiai állomásokat.

Mozgassa az egeret a pont fölött, hogy megjelenjen az állomás neve.

Azután kattintson az időjárási megfigyelések és előrejelzések megtekintéséhez.

A térkép megváltoztatása: kattintson a fekete keresztel jelölt zöld gombra ráközelítéshez, a vonallal jelölt zöld gombra távolításhoz, vagy a zöld nyilakra a szomszédos térképek eléréséhez.


METAR-TAF: